createdAt,value
2022-08-19T00:01:52.998Z,12.07
2022-08-19T00:04:24.341Z,12.02
2022-08-19T00:06:51.553Z,12.98
2022-08-19T00:09:21.472Z,12.30
2022-08-19T00:11:48.163Z,13.15
2022-08-19T00:14:16.550Z,13.38
2022-08-19T00:16:45.495Z,13.00
2022-08-19T00:19:12.573Z,13.60
2022-08-19T00:21:39.403Z,14.70
2022-08-19T00:24:08.588Z,13.73
2022-08-19T00:26:35.836Z,13.95
2022-08-19T00:29:03.782Z,14.52
2022-08-19T00:31:30.481Z,14.65
2022-08-19T00:33:57.144Z,14.68
2022-08-19T00:36:24.478Z,15.27
2022-08-19T00:38:51.185Z,15.05
2022-08-19T00:41:20.705Z,14.40
2022-08-19T00:43:59.791Z,15.38
2022-08-19T00:46:27.116Z,16.65
2022-08-19T00:48:55.405Z,21.38
2022-08-19T00:51:22.063Z,27.38
2022-08-19T00:53:48.767Z,34.00
2022-08-19T00:56:15.492Z,29.65
2022-08-19T00:58:42.388Z,35.25
2022-08-19T01:01:09.259Z,33.97
2022-08-19T01:03:57.158Z,38.00
2022-08-19T01:06:26.276Z,38.47
2022-08-19T01:08:53.224Z,38.10
2022-08-19T01:11:20.014Z,39.97
2022-08-19T01:13:49.871Z,38.50
2022-08-19T01:16:20.168Z,41.35
2022-08-19T01:18:47.748Z,43.55
2022-08-19T01:21:25.014Z,43.67
2022-08-19T01:23:51.781Z,42.78
2022-08-19T01:26:25.617Z,40.00
2022-08-19T01:28:57.437Z,32.53
2022-08-19T01:31:30.132Z,36.78
2022-08-19T01:34:00.888Z,47.55
2022-08-19T01:36:43.776Z,44.05
2022-08-19T01:39:13.249Z,47.42
2022-08-19T01:41:40.122Z,37.95
2022-08-19T01:44:17.147Z,44.00
2022-08-19T01:46:47.062Z,51.28
2022-08-19T01:49:13.788Z,46.30
2022-08-19T01:51:40.696Z,41.50
2022-08-19T01:54:12.909Z,43.63
2022-08-19T01:56:39.857Z,48.67
2022-08-19T01:59:11.870Z,51.92
2022-08-19T02:01:38.581Z,45.83
2022-08-19T02:04:05.327Z,34.83
2022-08-19T02:06:32.409Z,30.90
2022-08-19T02:08:59.578Z,30.67
2022-08-19T02:11:29.663Z,33.08
2022-08-19T02:13:56.571Z,40.05
2022-08-19T02:16:23.537Z,34.38
2022-08-19T02:18:50.870Z,33.58
2022-08-19T02:21:20.224Z,36.15
2022-08-19T02:23:47.714Z,32.67
2022-08-19T02:26:14.865Z,32.30
2022-08-19T02:28:42.279Z,30.77
2022-08-19T02:31:15.060Z,26.23
2022-08-19T02:33:42.400Z,29.27
2022-08-19T02:36:11.612Z,25.42
2022-08-19T02:38:39.245Z,37.03
2022-08-19T02:41:11.764Z,33.03
2022-08-19T02:43:39.023Z,42.05
2022-08-19T02:46:17.887Z,36.88
2022-08-19T02:48:44.875Z,35.92
2022-08-19T02:51:18.210Z,38.17
2022-08-19T02:53:44.893Z,35.47
2022-08-19T02:56:11.584Z,37.90
2022-08-19T02:58:38.394Z,35.45
2022-08-19T03:01:05.099Z,37.17
2022-08-19T03:03:31.775Z,33.00
2022-08-19T03:06:05.482Z,34.40
2022-08-19T03:08:32.182Z,33.53
2022-08-19T03:10:58.881Z,32.92
2022-08-19T03:13:25.801Z,33.08
2022-08-19T03:15:52.478Z,29.00
2022-08-19T03:18:19.199Z,34.35
2022-08-19T03:20:48.778Z,31.75
2022-08-19T03:23:16.542Z,32.75
2022-08-19T03:25:46.788Z,31.98
2022-08-19T03:28:24.768Z,27.70
2022-08-19T03:31:41.771Z,27.45
2022-08-19T03:34:00.182Z,28.20
2022-08-19T03:36:28.526Z,25.30
2022-08-19T03:39:00.062Z,25.42
2022-08-19T03:41:34.119Z,22.17
2022-08-19T03:44:12.671Z,25.75
2022-08-19T03:46:44.560Z,23.92
2022-08-19T03:49:11.356Z,21.83
2022-08-19T03:51:42.592Z,21.80
2022-08-19T03:54:12.148Z,22.98
2022-08-19T03:56:40.524Z,21.60
2022-08-19T03:59:12.279Z,22.83
2022-08-19T04:01:38.987Z,21.77
2022-08-19T04:04:06.239Z,21.38
2022-08-19T04:06:36.094Z,21.75
2022-08-19T04:09:10.296Z,21.17
2022-08-19T04:11:43.221Z,20.75
2022-08-19T04:14:16.888Z,21.30
2022-08-19T04:16:44.974Z,20.77
2022-08-19T04:19:12.229Z,21.75
2022-08-19T04:21:39.181Z,20.77
2022-08-19T04:24:06.387Z,22.98
2022-08-19T04:26:36.904Z,24.13
2022-08-19T04:29:11.653Z,24.60
2022-08-19T04:31:39.741Z,27.48
2022-08-19T04:34:10.223Z,24.55
2022-08-19T04:36:38.621Z,22.85
2022-08-19T04:39:11.400Z,21.95
2022-08-19T04:41:38.096Z,22.13
2022-08-19T04:44:05.257Z,21.23
2022-08-19T04:46:40.405Z,28.63
2022-08-19T04:49:20.207Z,21.10
2022-08-19T04:51:48.042Z,21.30
2022-08-19T04:54:15.934Z,20.08
2022-08-19T04:56:57.622Z,20.15
2022-08-19T04:59:24.268Z,21.00
2022-08-19T05:01:50.962Z,20.75
2022-08-19T05:04:21.442Z,21.08
2022-08-19T05:06:50.020Z,20.45
2022-08-19T05:09:17.110Z,19.52
2022-08-19T05:11:44.780Z,21.00
2022-08-19T05:14:12.575Z,20.63
2022-08-19T05:16:39.541Z,20.67
2022-08-19T05:19:06.270Z,21.80
2022-08-19T05:21:33.540Z,20.63
2022-08-19T05:24:00.272Z,20.65
2022-08-19T05:26:27.363Z,20.73
2022-08-19T05:28:54.947Z,19.35
2022-08-19T05:31:22.421Z,18.90
2022-08-19T05:33:49.334Z,19.20
2022-08-19T05:36:16.035Z,19.65
2022-08-19T05:38:42.756Z,19.60
2022-08-19T05:41:11.150Z,19.52
2022-08-19T05:43:38.109Z,18.48
2022-08-19T05:46:06.702Z,18.23
2022-08-19T05:48:34.891Z,17.70
2022-08-19T05:51:06.404Z,17.58
2022-08-19T05:53:34.500Z,17.83
2022-08-19T05:56:09.714Z,18.65
2022-08-19T05:58:37.468Z,19.55
2022-08-19T06:01:11.661Z,19.33
2022-08-19T06:03:38.404Z,18.20
2022-08-19T06:06:06.579Z,17.98
2022-08-19T06:08:33.813Z,17.77
2022-08-19T06:11:15.615Z,18.20
2022-08-19T06:13:42.527Z,18.27
2022-08-19T06:16:09.224Z,18.42
2022-08-19T06:18:35.955Z,18.27
2022-08-19T06:21:02.678Z,18.90
2022-08-19T06:23:29.299Z,18.05
2022-08-19T06:25:56.544Z,18.42
2022-08-19T06:28:23.362Z,18.25
2022-08-19T06:30:50.374Z,19.08
2022-08-19T06:33:17.343Z,18.13
2022-08-19T06:38:12.049Z,17.10
2022-08-19T06:40:38.815Z,17.33
2022-08-19T06:43:07.682Z,18.38
2022-08-19T06:45:38.340Z,17.45
2022-08-19T06:48:07.053Z,18.02
2022-08-19T06:50:33.739Z,16.35
2022-08-19T06:53:04.708Z,18.02
2022-08-19T06:55:31.538Z,17.02
2022-08-19T06:58:04.054Z,17.80
2022-08-19T07:03:01.876Z,18.05
2022-08-19T07:05:31.505Z,18.98
2022-08-19T07:08:04.737Z,18.20
2022-08-19T07:10:31.799Z,17.42
2022-08-19T07:12:58.449Z,17.92
2022-08-19T07:15:25.119Z,17.65
2022-08-19T07:17:52.758Z,18.33
2022-08-19T07:20:19.822Z,18.25
2022-08-19T07:22:46.586Z,17.83
2022-08-19T07:25:13.536Z,18.58
2022-08-19T07:27:40.363Z,18.50
2022-08-19T07:30:11.631Z,18.67
2022-08-19T07:32:39.566Z,19.25
2022-08-19T07:35:06.904Z,18.38
2022-08-19T07:37:33.666Z,18.23
2022-08-19T07:40:02.146Z,17.73
2022-08-19T07:42:29.135Z,19.73
2022-08-19T07:44:55.919Z,18.88
2022-08-19T07:47:49.907Z,19.13
2022-08-19T07:50:11.008Z,19.90
2022-08-19T07:52:38.636Z,19.40
2022-08-19T07:55:07.551Z,19.45
2022-08-19T07:57:54.277Z,19.83
2022-08-19T08:00:23.802Z,20.23
2022-08-19T08:02:52.995Z,20.23
2022-08-19T08:05:23.748Z,20.65
2022-08-19T08:07:50.446Z,20.20
2022-08-19T08:10:20.843Z,19.80
2022-08-19T08:13:01.804Z,20.23
2022-08-19T08:15:41.369Z,21.30
2022-08-19T08:18:09.208Z,20.80
2022-08-19T08:20:36.066Z,19.60
2022-08-19T08:23:02.838Z,19.63
2022-08-19T08:25:32.474Z,19.70
2022-08-19T08:28:01.320Z,19.67
2022-08-19T08:30:31.172Z,18.95
2022-08-19T08:33:02.536Z,18.67
2022-08-19T08:35:29.838Z,19.73
2022-08-19T08:37:57.083Z,18.58
2022-08-19T08:40:38.975Z,19.25
2022-08-19T08:43:33.406Z,18.45
2022-08-19T08:46:07.566Z,18.02
2022-08-19T08:48:56.064Z,17.60
2022-08-19T08:52:00.419Z,18.38
2022-08-19T08:54:48.955Z,19.08
2022-08-19T08:57:40.762Z,19.38
2022-08-19T09:00:22.051Z,19.27
2022-08-19T09:02:50.966Z,18.83
2022-08-19T09:05:22.277Z,19.63
2022-08-19T09:08:21.664Z,19.52
2022-08-19T09:10:55.194Z,18.83
2022-08-19T09:13:31.173Z,19.85
2022-08-19T09:16:11.527Z,20.67
2022-08-19T09:18:44.442Z,20.10
2022-08-19T09:21:11.265Z,20.13
2022-08-19T09:23:38.369Z,19.80
2022-08-19T09:26:16.324Z,20.05
2022-08-19T09:28:48.332Z,20.38
2022-08-19T09:31:19.708Z,20.08
2022-08-19T09:33:47.742Z,19.63
2022-08-19T09:36:21.743Z,20.25
2022-08-19T09:39:00.580Z,19.08
2022-08-19T09:41:29.824Z,19.38
2022-08-19T09:43:58.997Z,18.33
2022-08-19T09:46:29.168Z,18.58
2022-08-19T09:48:59.406Z,18.45
2022-08-19T09:51:33.538Z,19.00
2022-08-19T09:54:04.830Z,18.35
2022-08-19T09:56:33.082Z,18.50
2022-08-19T09:59:02.298Z,18.08
2022-08-19T10:01:31.179Z,17.50
2022-08-19T10:03:59.814Z,17.75
2022-08-19T10:06:46.266Z,18.55
2022-08-19T10:09:15.219Z,17.27
2022-08-19T10:11:52.263Z,17.08
2022-08-19T10:14:21.466Z,18.17
2022-08-19T10:16:48.183Z,17.10
2022-08-19T10:19:14.886Z,17.58
2022-08-19T10:21:53.721Z,17.42
2022-08-19T10:24:20.449Z,17.05
2022-08-19T10:26:47.143Z,16.75
2022-08-19T10:29:14.342Z,17.27
2022-08-19T10:32:04.982Z,17.02
2022-08-19T10:34:48.050Z,16.95
2022-08-19T10:37:23.748Z,16.15
2022-08-19T10:39:51.317Z,16.80
2022-08-19T10:42:18.171Z,16.52
2022-08-19T10:44:45.030Z,16.25
2022-08-19T10:47:24.557Z,16.02
2022-08-19T10:49:54.700Z,15.90
2022-08-19T10:52:27.643Z,16.23
2022-08-19T10:54:59.284Z,15.43
2022-08-19T10:57:52.508Z,16.08
2022-08-19T11:00:20.092Z,15.85
2022-08-19T11:02:46.850Z,16.55
2022-08-19T11:05:14.072Z,15.55
2022-08-19T11:07:40.922Z,15.93
2022-08-19T11:10:13.010Z,16.13
2022-08-19T11:12:41.395Z,15.23
2022-08-19T11:15:09.912Z,16.17
2022-08-19T11:17:36.678Z,17.33
2022-08-19T11:20:04.708Z,16.33
2022-08-19T11:22:35.326Z,16.42
2022-08-19T11:25:08.851Z,16.05
2022-08-19T11:27:41.951Z,15.52
2022-08-19T11:30:12.960Z,15.80
2022-08-19T11:32:44.646Z,14.95
2022-08-19T11:35:14.203Z,15.50
2022-08-19T11:37:40.875Z,16.40
2022-08-19T11:40:08.487Z,16.13
2022-08-19T11:42:35.216Z,16.38
2022-08-19T11:45:01.932Z,15.93
2022-08-19T11:47:28.624Z,15.73
2022-08-19T11:49:55.521Z,16.13
2022-08-19T11:52:22.219Z,15.27
2022-08-19T11:54:49.003Z,14.88
2022-08-19T11:57:16.005Z,13.90
2022-08-19T11:59:42.690Z,14.23
2022-08-19T12:02:09.394Z,13.65
2022-08-19T12:04:36.200Z,13.75
2022-08-19T12:07:02.946Z,13.15
2022-08-19T12:09:31.082Z,13.48
2022-08-19T12:11:57.859Z,12.70
2022-08-19T12:14:24.522Z,12.90
2022-08-19T12:16:52.149Z,12.90
2022-08-19T12:19:21.897Z,13.20
2022-08-19T12:21:50.423Z,12.50
2022-08-19T12:24:17.219Z,12.68
2022-08-19T12:26:53.373Z,11.90
2022-08-19T12:29:23.801Z,12.07
2022-08-19T12:31:55.913Z,11.38
2022-08-19T12:34:25.629Z,11.83
2022-08-19T12:36:52.348Z,11.23
2022-08-19T12:39:19.164Z,11.00
2022-08-19T12:41:54.059Z,10.73
2022-08-19T12:44:29.345Z,10.45
2022-08-19T12:47:04.115Z,10.52
2022-08-19T12:49:52.488Z,9.98
2022-08-19T12:52:23.016Z,10.55
2022-08-19T12:54:51.781Z,9.75
2022-08-19T12:57:32.103Z,10.20
2022-08-19T13:00:06.797Z,10.35
2022-08-19T13:02:38.262Z,9.88
2022-08-19T13:05:07.733Z,10.00
2022-08-19T13:07:34.693Z,10.25
2022-08-19T13:10:01.816Z,10.52
2022-08-19T13:12:28.766Z,11.02
2022-08-19T13:14:56.660Z,10.95
2022-08-19T13:17:23.539Z,10.80
2022-08-19T13:19:50.591Z,10.88
2022-08-19T13:22:18.238Z,11.15
2022-08-19T13:24:47.446Z,11.15
2022-08-19T13:27:15.151Z,11.85
2022-08-19T13:29:43.086Z,11.60
2022-08-19T13:32:09.848Z,12.02
2022-08-19T13:34:39.899Z,11.15
2022-08-19T13:37:06.621Z,11.80
2022-08-19T13:39:34.054Z,11.38
2022-08-19T13:42:01.705Z,11.52
2022-08-19T13:44:29.403Z,11.38
2022-08-19T13:47:01.380Z,11.50
2022-08-19T13:49:29.514Z,11.90
2022-08-19T13:51:56.209Z,11.48
2022-08-19T13:54:23.220Z,11.95
2022-08-19T13:56:49.915Z,11.82
2022-08-19T13:59:16.622Z,11.25
2022-08-19T14:01:43.453Z,11.40
2022-08-19T14:04:10.354Z,11.23
2022-08-19T14:06:37.228Z,11.85
2022-08-19T14:09:04.076Z,12.00
2022-08-19T14:11:30.909Z,11.70
2022-08-19T14:13:57.625Z,11.05
2022-08-19T14:16:24.343Z,12.25
2022-08-19T14:18:51.170Z,11.43
2022-08-19T14:21:22.127Z,12.18
2022-08-19T14:23:48.855Z,12.00
2022-08-19T14:26:17.952Z,11.75
2022-08-19T14:28:46.146Z,10.85
2022-08-19T14:31:14.851Z,11.75
2022-08-19T14:33:41.600Z,11.80
2022-08-19T14:36:08.442Z,12.75
2022-08-19T14:38:35.501Z,11.68
2022-08-19T14:41:16.162Z,12.00
2022-08-19T14:43:43.328Z,11.52
2022-08-19T14:46:10.563Z,10.90
2022-08-19T14:48:37.414Z,11.05
2022-08-19T14:51:08.732Z,10.85
2022-08-19T14:53:36.075Z,11.10
2022-08-19T14:56:07.648Z,10.30
2022-08-19T14:58:37.393Z,11.25
2022-08-19T15:01:05.812Z,10.52
2022-08-19T15:03:32.518Z,10.63
2022-08-19T15:06:01.604Z,10.27
2022-08-19T15:08:30.341Z,11.38
2022-08-19T15:10:57.923Z,10.70
2022-08-19T15:13:26.035Z,10.68
2022-08-19T15:15:52.925Z,10.73
2022-08-19T15:18:20.305Z,11.05
2022-08-19T15:20:48.066Z,10.25
2022-08-19T15:23:18.160Z,10.27
2022-08-19T15:25:45.189Z,10.63
2022-08-19T15:28:12.489Z,9.90
2022-08-19T15:30:40.399Z,9.75
2022-08-19T15:33:08.227Z,10.05
2022-08-19T15:35:34.956Z,9.77
2022-08-19T15:38:02.084Z,9.63
2022-08-19T15:40:28.906Z,10.20
2022-08-19T15:42:57.334Z,10.20
2022-08-19T15:45:24.081Z,10.35
2022-08-19T15:47:50.832Z,10.40
2022-08-19T15:50:20.649Z,10.85
2022-08-19T15:52:57.402Z,10.18
2022-08-19T15:55:34.114Z,10.15
2022-08-19T15:58:20.560Z,10.95
2022-08-19T16:00:58.176Z,9.65
2022-08-19T16:03:25.114Z,10.93
2022-08-19T16:05:53.634Z,10.32
2022-08-19T16:08:20.365Z,10.45
2022-08-19T16:10:47.092Z,10.43
2022-08-19T16:13:13.811Z,11.35
2022-08-19T16:15:40.521Z,10.88
2022-08-19T16:18:07.286Z,10.45
2022-08-19T16:20:35.697Z,10.65
2022-08-19T16:23:03.455Z,11.40
2022-08-19T16:25:30.163Z,11.30
2022-08-19T16:28:07.456Z,11.52
2022-08-19T16:30:36.822Z,12.20
2022-08-19T16:33:03.558Z,11.23
2022-08-19T16:35:30.590Z,12.00
2022-08-19T16:37:57.303Z,12.35
2022-08-19T16:40:24.242Z,12.35
2022-08-19T16:42:51.008Z,12.57
2022-08-19T16:45:17.763Z,12.10
2022-08-19T16:47:44.567Z,12.10
2022-08-19T16:50:11.318Z,12.57
2022-08-19T16:52:38.135Z,12.52
2022-08-19T16:55:05.714Z,11.43
2022-08-19T16:57:32.556Z,12.43
2022-08-19T16:59:59.439Z,12.70
2022-08-19T17:02:29.759Z,12.48
2022-08-19T17:04:59.010Z,12.52
2022-08-19T17:07:27.607Z,12.80
2022-08-19T17:09:55.092Z,13.23
2022-08-19T17:12:22.814Z,13.05
2022-08-19T17:14:57.621Z,12.93
2022-08-19T17:17:28.743Z,12.50
2022-08-19T17:19:56.001Z,13.15
2022-08-19T17:22:22.850Z,13.20
2022-08-19T17:24:49.656Z,12.73
2022-08-19T17:27:16.391Z,13.23
2022-08-19T17:29:46.849Z,12.90
2022-08-19T17:32:14.332Z,12.95
2022-08-19T17:34:41.123Z,12.80
2022-08-19T17:37:07.972Z,12.57
2022-08-19T17:39:39.014Z,12.27
2022-08-19T17:42:07.003Z,12.85
2022-08-19T17:44:35.085Z,12.80
2022-08-19T17:47:02.010Z,12.18
2022-08-19T17:49:28.689Z,11.10
2022-08-19T17:51:55.557Z,11.70
2022-08-19T17:54:22.256Z,11.95
2022-08-19T17:56:49.009Z,11.32
2022-08-19T17:59:16.059Z,12.02
2022-08-19T18:01:51.826Z,11.75
2022-08-19T18:04:21.700Z,11.68
2022-08-19T18:06:53.343Z,10.63
2022-08-19T18:09:25.951Z,10.10
2022-08-19T18:11:55.152Z,9.98
2022-08-19T18:14:23.829Z,9.15
2022-08-19T18:16:50.598Z,8.90
2022-08-19T18:19:17.932Z,9.27
2022-08-19T18:21:44.608Z,9.95
2022-08-19T18:24:11.333Z,10.65
2022-08-19T18:26:38.136Z,10.68
2022-08-19T18:29:05.065Z,10.23
2022-08-19T18:31:31.828Z,10.73
2022-08-19T18:33:58.685Z,10.60
2022-08-19T18:36:52.157Z,10.02
2022-08-19T18:39:12.288Z,9.10
2022-08-19T18:41:39.094Z,9.10
2022-08-19T18:44:05.825Z,9.18
2022-08-19T18:46:32.984Z,8.98
2022-08-19T18:49:03.564Z,9.20
2022-08-19T18:51:30.491Z,9.18
2022-08-19T18:53:57.766Z,9.15
2022-08-19T18:56:25.803Z,9.77
2022-08-19T18:58:52.511Z,9.75
2022-08-19T19:01:23.277Z,10.02
2022-08-19T19:03:52.533Z,10.38
2022-08-19T19:06:25.283Z,10.80
2022-08-19T19:08:53.680Z,10.50
2022-08-19T19:11:30.378Z,9.73
2022-08-19T19:13:57.388Z,10.25
2022-08-19T19:16:24.738Z,10.50
2022-08-19T19:18:52.006Z,10.38
2022-08-19T19:21:39.908Z,10.38
2022-08-19T19:24:20.952Z,11.07
2022-08-19T19:26:49.383Z,11.30
2022-08-19T19:29:17.515Z,10.52
2022-08-19T19:31:44.409Z,11.20
2022-08-19T19:34:28.936Z,12.40
2022-08-19T19:36:56.191Z,11.98
2022-08-19T19:39:34.065Z,11.52
2022-08-19T19:42:12.585Z,11.73
2022-08-19T19:44:47.254Z,11.30
2022-08-19T19:47:14.453Z,12.07
2022-08-19T19:49:57.869Z,12.50
2022-08-19T19:52:28.317Z,12.65
2022-08-19T19:54:54.983Z,13.50
2022-08-19T19:57:21.685Z,12.77
2022-08-19T19:59:51.338Z,13.07
2022-08-19T20:02:18.438Z,13.38
2022-08-19T20:04:45.185Z,13.77
2022-08-19T20:07:11.928Z,13.48
2022-08-19T20:09:58.273Z,14.25
2022-08-19T20:12:25.455Z,14.82
2022-08-19T20:14:52.114Z,14.82
2022-08-19T20:17:18.791Z,14.18
2022-08-19T20:19:45.451Z,13.05
2022-08-19T20:22:12.090Z,13.32
2022-08-19T20:24:38.764Z,13.73
2022-08-19T20:27:05.545Z,13.57
2022-08-19T20:29:39.339Z,13.90
2022-08-19T20:32:08.358Z,14.35
2022-08-19T20:34:35.064Z,13.95
2022-08-19T20:37:01.984Z,12.73
2022-08-19T20:39:28.726Z,13.48
2022-08-19T20:41:55.412Z,13.57
2022-08-19T20:44:22.111Z,13.02
2022-08-19T20:46:54.609Z,13.23
2022-08-19T20:49:22.488Z,13.52
2022-08-19T20:51:49.247Z,14.10
2022-08-19T20:54:17.136Z,12.63
2022-08-19T20:56:43.830Z,13.15
2022-08-19T20:59:10.520Z,13.20
2022-08-19T21:01:37.528Z,13.90
2022-08-19T21:04:04.443Z,15.00
2022-08-19T21:06:31.197Z,15.05
2022-08-19T21:08:58.943Z,15.27
2022-08-19T21:11:25.784Z,13.75
2022-08-19T21:13:52.543Z,12.90
2022-08-19T21:16:19.298Z,12.15
2022-08-19T21:18:45.982Z,11.57
2022-08-19T21:21:12.668Z,9.95
2022-08-19T21:23:39.366Z,9.48
2022-08-19T21:26:06.077Z,9.85
2022-08-19T21:28:36.026Z,9.27
2022-08-19T21:31:05.051Z,9.60
2022-08-19T21:33:31.993Z,9.05
2022-08-19T21:35:59.640Z,9.15
2022-08-19T21:38:26.399Z,9.60
2022-08-19T21:40:53.197Z,9.75
2022-08-19T21:43:19.947Z,10.75
2022-08-19T21:45:47.350Z,10.30
2022-08-19T21:48:15.137Z,10.52
2022-08-19T21:50:43.629Z,11.55
2022-08-19T21:53:17.653Z,12.20
2022-08-19T21:55:47.343Z,11.38
2022-08-19T21:58:20.144Z,11.60
2022-08-19T22:00:56.686Z,11.65
2022-08-19T22:03:23.495Z,12.02
2022-08-19T22:05:50.228Z,11.70
2022-08-19T22:08:16.960Z,12.48
2022-08-19T22:10:43.767Z,11.77
2022-08-19T22:13:10.447Z,11.90
2022-08-19T22:15:37.193Z,12.45
2022-08-19T22:18:03.945Z,12.55
2022-08-19T22:20:31.749Z,12.95
2022-08-19T22:23:05.342Z,13.48
2022-08-19T22:25:34.776Z,13.80
2022-08-19T22:28:04.081Z,13.75
2022-08-19T22:30:33.539Z,14.38
2022-08-19T22:33:02.662Z,15.75
2022-08-19T22:35:31.658Z,15.55
2022-08-19T22:38:01.964Z,17.45
2022-08-19T22:40:30.342Z,18.42
2022-08-19T22:43:01.754Z,18.83
2022-08-19T22:45:29.221Z,19.83
2022-08-19T22:47:56.830Z,20.48
2022-08-19T22:50:24.409Z,19.60
2022-08-19T22:52:56.532Z,20.50
2022-08-19T22:55:24.231Z,20.45
2022-08-19T22:57:50.974Z,21.83
2022-08-19T23:00:17.696Z,22.00
2022-08-19T23:02:51.602Z,22.23
2022-08-19T23:05:21.774Z,21.33
2022-08-19T23:07:52.257Z,22.10
2022-08-19T23:10:26.928Z,22.25
2022-08-19T23:12:56.413Z,19.33
2022-08-19T23:15:25.671Z,20.27
2022-08-19T23:17:54.724Z,20.00
2022-08-19T23:20:22.790Z,22.10
2022-08-19T23:22:49.600Z,22.25
2022-08-19T23:25:19.984Z,23.60
2022-08-19T23:27:46.739Z,22.55
2022-08-19T23:30:13.454Z,23.73
2022-08-19T23:32:40.250Z,24.15
2022-08-19T23:35:07.362Z,22.77
2022-08-19T23:37:34.169Z,22.45
2022-08-19T23:40:00.871Z,22.58
2022-08-19T23:42:27.690Z,22.73
2022-08-19T23:45:00.682Z,23.38
2022-08-19T23:47:27.462Z,26.05
2022-08-19T23:49:56.460Z,24.05
2022-08-19T23:52:23.568Z,24.83
2022-08-19T23:54:50.267Z,24.23
2022-08-19T23:57:17.104Z,26.90
2022-08-19T23:59:44.307Z,25.20
